Kaisei Maru — JD3114 — position and weather

sailwx.info

Track history (hours):
 
Tides and Currents Weather Stations Pressure Air Temp Water Temp Dewpoint Dewpoint Depression Visibility Wind Speed Wind Dir Waves Ship Positions

Kaisei Maru

Last reported at 2015-Apr-21 11:33 UTC. Time now 2015-Apr-21 11:40 UTC.
Position N 34°41' E 135°12'.

Length 52 m; draft 4 m.

Type: Tanker. MMSI: 431001837.

Date/timePositionNaut miles runAvg speedWind from/ knotsBaromVisibWave heightAir tempDewpointWater temp
2015-Apr-21 11:33N 34°41' E 135°12'0 0.0
2015-Apr-21 10:33N 34°41' E 135°12'0 0.0
2015-Apr-21 09:33N 34°41' E 135°12'0 0.0
2015-Apr-21 08:33N 34°41' E 135°12'5 5.2
2015-Apr-21 07:33N 34°37' E 135°17'1010.2
2015-Apr-21 06:33N 34°27' E 135°19'1 1.4
2015-Apr-21 05:31N 34°26' E 135°19'0 0.0
2015-Apr-21 04:32N 34°26' E 135°19'0 0.0
2015-Apr-21 03:20N 34°26' E 135°19'0 0.0
2015-Apr-21 02:26N 34°26' E 135°19'0 0.0
2015-Apr-21 01:29N 34°26' E 135°19'7 7.6
2015-Apr-21 00:33N 34°33' E 135°17'9 9.4
2015-Apr-20 23:33N 34°42' E 135°17'0 0.0
2015-Apr-20 22:33N 34°42' E 135°17'1 1.3
2015-Apr-20 21:33N 34°42' E 135°18'4 3.8
2015-Apr-20 20:33N 34°38' E 135°17'1010.4
2015-Apr-20 19:33N 34°35' E 135°05'241 9.6
2015-Apr-19 18:30N 33°47' E 130°19'1111.7
2015-Apr-19 17:33N 33°40' E 130°09'  
2015-Apr-16 09:07N 34°37' E 134°56'711.4
2015-Apr-16 08:33N 34°36' E 135°04'1010.3
2015-Apr-16 07:34N 34°38' E 135°16'8 7.9
2015-Apr-16 06:33N 34°42' E 135°24'0 0.0
2015-Apr-16 05:33N 34°42' E 135°24'0 0.0
2015-Apr-16 04:34N 34°42' E 135°24'0 0.2
2015-Apr-16 03:33N 34°42' E 135°24'3 2.7
2015-Apr-16 02:34N 34°40' E 135°27'0 0.0
2015-Apr-16 01:34N 34°40' E 135°27'0 0.0
2015-Apr-16 00:33N 34°40' E 135°27'0 0.0
2015-Apr-15 23:33N 34°40' E 135°27'4 4.5
2015-Apr-15 22:33N 34°41' E 135°21'7 7.4
2015-Apr-15 21:33N 34°41' E 135°12'0 0.0
2015-Apr-15 20:33N 34°41' E 135°12'0 0.0
2015-Apr-15 19:33N 34°41' E 135°12'0 0.0
2015-Apr-15 18:33N 34°41' E 135°12'0 0.0
2015-Apr-15 17:34N 34°41' E 135°12'0 0.0
2015-Apr-15 16:34N 34°41' E 135°12'0 0.0
2015-Apr-15 15:33N 34°41' E 135°12'0 0.0
2015-Apr-15 14:33N 34°41' E 135°12'0 0.0
2015-Apr-15 13:33N 34°41' E 135°12'0 0.0
2015-Apr-15 12:34N 34°41' E 135°12'0 0.0
2015-Apr-15 11:33N 34°41' E 135°12'0 0.0
2015-Apr-15 10:33N 34°41' E 135°12'0 0.0
2015-Apr-15 09:33N 34°41' E 135°12'0 0.0
2015-Apr-15 08:33N 34°41' E 135°12'0 0.0
2015-Apr-15 07:34N 34°41' E 135°12'0 0.0
2015-Apr-15 06:33N 34°41' E 135°12'0 0.0
2015-Apr-15 05:33N 34°41' E 135°12'0 0.0
2015-Apr-15 04:34N 34°41' E 135°12'0 0.0
2015-Apr-15 03:33N 34°41' E 135°12'3 2.9
2015-Apr-15 02:32N 34°39' E 135°10'0 0.0
2015-Apr-15 01:33N 34°39' E 135°10'0 0.0
2015-Apr-15 00:34N 34°39' E 135°10'0 0.0
2015-Apr-14 23:33N 34°39' E 135°10'1 1.1
2015-Apr-14 22:33N 34°38' E 135°10'0 0.1
2015-Apr-14 21:34N 34°38' E 135°10'0 0.1
2015-Apr-14 20:33N 34°38' E 135°10'0 0.0
2015-Apr-14 19:34N 34°38' E 135°10'0 0.0
2015-Apr-14 18:34N 34°38' E 135°10'0 0.1
2015-Apr-14 17:34N 34°38' E 135°10'0 0.0
2015-Apr-14 16:34N 34°38' E 135°10'7 7.3
2015-Apr-14 15:34N 34°37' E 135°01'234 9.2
2015-Apr-13 14:07N 33°50' E 130°24'610.2
2015-Apr-13 13:33N 33°46' E 130°18'9 9.2
2015-Apr-13 12:32N 33°40' E 130°10'  
Track history (hours):
 
Tides and Currents Weather Stations Pressure Air Temp Water Temp Dewpoint Dewpoint Depression Visibility Wind Speed Wind Dir Waves Ship Positions

Kaisei Maru

Last reported at 2015-Apr-21 11:33 UTC. Time now 2015-Apr-21 11:40 UTC.
Position N 34°41' E 135°12'.

Length 52 m; draft 4 m.

Type: Tanker. MMSI: 431001837.

Date/timePositionNaut miles runAvg speedWind from/ knotsBaromVisibWave heightAir tempDewpointWater temp
2015-Apr-21 11:33N 34°41' E 135°12'0 0.0
2015-Apr-21 10:33N 34°41' E 135°12'0 0.0
2015-Apr-21 09:33N 34°41' E 135°12'0 0.0
2015-Apr-21 08:33N 34°41' E 135°12'5 5.2
2015-Apr-21 07:33N 34°37' E 135°17'1010.2
2015-Apr-21 06:33N 34°27' E 135°19'1 1.4
2015-Apr-21 05:31N 34°26' E 135°19'0 0.0
2015-Apr-21 04:32N 34°26' E 135°19'0 0.0
2015-Apr-21 03:20N 34°26' E 135°19'0 0.0
2015-Apr-21 02:26N 34°26' E 135°19'0 0.0
2015-Apr-21 01:29N 34°26' E 135°19'7 7.6
2015-Apr-21 00:33N 34°33' E 135°17'9 9.4
2015-Apr-20 23:33N 34°42' E 135°17'0 0.0
2015-Apr-20 22:33N 34°42' E 135°17'1 1.3
2015-Apr-20 21:33N 34°42' E 135°18'4 3.8
2015-Apr-20 20:33N 34°38' E 135°17'1010.4
2015-Apr-20 19:33N 34°35' E 135°05'241 9.6
2015-Apr-19 18:30N 33°47' E 130°19'1111.7
2015-Apr-19 17:33N 33°40' E 130°09'  
2015-Apr-16 09:07N 34°37' E 134°56'711.4
2015-Apr-16 08:33N 34°36' E 135°04'1010.3
2015-Apr-16 07:34N 34°38' E 135°16'8 7.9
2015-Apr-16 06:33N 34°42' E 135°24'0 0.0
2015-Apr-16 05:33N 34°42' E 135°24'0 0.0
2015-Apr-16 04:34N 34°42' E 135°24'0 0.2
2015-Apr-16 03:33N 34°42' E 135°24'3 2.7
2015-Apr-16 02:34N 34°40' E 135°27'0 0.0
2015-Apr-16 01:34N 34°40' E 135°27'0 0.0
2015-Apr-16 00:33N 34°40' E 135°27'0 0.0
2015-Apr-15 23:33N 34°40' E 135°27'4 4.5
2015-Apr-15 22:33N 34°41' E 135°21'7 7.4
2015-Apr-15 21:33N 34°41' E 135°12'0 0.0
2015-Apr-15 20:33N 34°41' E 135°12'0 0.0
2015-Apr-15 19:33N 34°41' E 135°12'0 0.0
2015-Apr-15 18:33N 34°41' E 135°12'0 0.0
2015-Apr-15 17:34N 34°41' E 135°12'0 0.0
2015-Apr-15 16:34N 34°41' E 135°12'0 0.0
2015-Apr-15 15:33N 34°41' E 135°12'0 0.0
2015-Apr-15 14:33N 34°41' E 135°12'0 0.0
2015-Apr-15 13:33N 34°41' E 135°12'0 0.0
2015-Apr-15 12:34N 34°41' E 135°12'0 0.0
2015-Apr-15 11:33N 34°41' E 135°12'0 0.0
2015-Apr-15 10:33N 34°41' E 135°12'0 0.0
2015-Apr-15 09:33N 34°41' E 135°12'0 0.0
2015-Apr-15 08:33N 34°41' E 135°12'0 0.0
2015-Apr-15 07:34N 34°41' E 135°12'0 0.0
2015-Apr-15 06:33N 34°41' E 135°12'0 0.0
2015-Apr-15 05:33N 34°41' E 135°12'0 0.0
2015-Apr-15 04:34N 34°41' E 135°12'0 0.0
2015-Apr-15 03:33N 34°41' E 135°12'3 2.9
2015-Apr-15 02:32N 34°39' E 135°10'0 0.0
2015-Apr-15 01:33N 34°39' E 135°10'0 0.0
2015-Apr-15 00:34N 34°39' E 135°10'0 0.0
2015-Apr-14 23:33N 34°39' E 135°10'1 1.1
2015-Apr-14 22:33N 34°38' E 135°10'0 0.1
2015-Apr-14 21:34N 34°38' E 135°10'0 0.1
2015-Apr-14 20:33N 34°38' E 135°10'0 0.0
2015-Apr-14 19:34N 34°38' E 135°10'0 0.0
2015-Apr-14 18:34N 34°38' E 135°10'0 0.1
2015-Apr-14 17:34N 34°38' E 135°10'0 0.0
2015-Apr-14 16:34N 34°38' E 135°10'7 7.3
2015-Apr-14 15:34N 34°37' E 135°01'234 9.2
2015-Apr-13 14:07N 33°50' E 130°24'610.2
2015-Apr-13 13:33N 33°46' E 130°18'9 9.2
2015-Apr-13 12:32N 33°40' E 130°10'  

Dump ship's entire track history